sensor_id;sensor_type;location;lat;lon;timestamp;P1;durP1;ratioP1;P2;durP2;ratioP2
9364;SDS011;4722;49.340;9.800;2023-04-03T02:10:35;1.58;;;0.60;;
9364;SDS011;4722;49.340;9.800;2023-04-03T02:13:01;0.95;;;0.57;;
9364;SDS011;4722;49.340;9.800;2023-04-03T02:15:27;1.52;;;0.93;;
9364;SDS011;4722;49.340;9.800;2023-04-03T02:17:53;1.40;;;0.73;;
9364;SDS011;4722;49.340;9.800;2023-04-03T02:20:19;1.75;;;0.90;;
9364;SDS011;4722;49.340;9.800;2023-04-03T02:22:45;3.55;;;0.60;;
9364;SDS011;4722;49.340;9.800;2023-04-03T02:25:11;0.95;;;0.60;;
9364;SDS011;4722;49.340;9.800;2023-04-03T02:27:37;0.65;;;0.55;;
9364;SDS011;4722;49.340;9.800;2023-04-03T02:30:04;1.55;;;0.60;;
9364;SDS011;4722;49.340;9.800;2023-04-03T02:32:30;0.65;;;0.55;;
9364;SDS011;4722;49.340;9.800;2023-04-03T02:34:56;2.42;;;0.90;;
9364;SDS011;4722;49.340;9.800;2023-04-03T02:37:22;1.15;;;0.75;;
9364;SDS011;4722;49.340;9.800;2023-04-03T02:39:48;0.70;;;0.50;;
9364;SDS011;4722;49.340;9.800;2023-04-03T02:42:14;4.22;;;0.70;;
9364;SDS011;4722;49.340;9.800;2023-04-03T02:44:40;1.00;;;0.60;;
9364;SDS011;4722;49.340;9.800;2023-04-03T02:47:06;1.08;;;0.85;;
9364;SDS011;4722;49.340;9.800;2023-04-03T02:49:32;2.00;;;0.70;;
9364;SDS011;4722;49.340;9.800;2023-04-03T02:51:58;1.48;;;0.73;;
9364;SDS011;4722;49.340;9.800;2023-04-03T02:54:24;1.10;;;0.68;;
9364;SDS011;4722;49.340;9.800;2023-04-03T02:56:53;6.32;;;0.80;;
9364;SDS011;4722;49.340;9.800;2023-04-03T02:59:19;2.75;;;0.88;;
9364;SDS011;4722;49.340;9.800;2023-04-03T03:01:45;2.50;;;0.82;;
9364;SDS011;4722;49.340;9.800;2023-04-03T03:04:11;1.20;;;0.80;;
9364;SDS011;4722;49.340;9.800;2023-04-03T03:06:37;3.13;;;0.77;;
9364;SDS011;4722;49.340;9.800;2023-04-03T03:09:04;1.75;;;0.82;;
9364;SDS011;4722;49.340;9.800;2023-04-03T03:11:30;4.22;;;1.40;;
9364;SDS011;4722;49.340;9.800;2023-04-03T03:13:57;5.25;;;0.52;;
9364;SDS011;4722;49.340;9.800;2023-04-03T03:16:23;1.90;;;0.90;;
9364;SDS011;4722;49.340;9.800;2023-04-03T03:18:49;6.22;;;1.50;;
9364;SDS011;4722;49.340;9.800;2023-04-03T03:21:15;3.33;;;1.27;;
9364;SDS011;4722;49.340;9.800;2023-04-03T03:23:41;1.88;;;0.98;;
9364;SDS011;4722;49.340;9.800;2023-04-03T03:26:08;2.50;;;1.02;;
9364;SDS011;4722;49.340;9.800;2023-04-03T03:28:34;3.28;;;1.00;;
9364;SDS011;4722;49.340;9.800;2023-04-03T03:31:01;3.35;;;1.23;;
9364;SDS011;4722;49.340;9.800;2023-04-03T03:33:27;1.83;;;0.95;;
9364;SDS011;4722;49.340;9.800;2023-04-03T03:35:53;2.60;;;1.20;;
9364;SDS011;4722;49.340;9.800;2023-04-03T03:38:19;1.58;;;0.80;;
9364;SDS011;4722;49.340;9.800;2023-04-03T03:40:49;2.20;;;0.80;;
9364;SDS011;4722;49.340;9.800;2023-04-03T03:43:15;3.05;;;1.02;;
9364;SDS011;4722;49.340;9.800;2023-04-03T03:45:41;1.90;;;1.00;;
9364;SDS011;4722;49.340;9.800;2023-04-03T03:48:07;4.00;;;1.25;;
9364;SDS011;4722;49.340;9.800;2023-04-03T03:50:33;4.20;;;0.88;;
9364;SDS011;4722;49.340;9.800;2023-04-03T03:52:59;2.50;;;1.30;;
9364;SDS011;4722;49.340;9.800;2023-04-03T03:55:25;2.00;;;0.90;;
9364;SDS011;4722;49.340;9.800;2023-04-03T03:57:51;1.20;;;0.70;;
9364;SDS011;4722;49.340;9.800;2023-04-03T04:00:17;4.53;;;0.90;;
9364;SDS011;4722;49.340;9.800;2023-04-03T04:02:43;3.30;;;1.08;;
9364;SDS011;4722;49.340;9.800;2023-04-03T04:05:09;2.08;;;1.13;;
9364;SDS011;4722;49.340;9.800;2023-04-03T04:07:35;2.33;;;1.00;;
9364;SDS011;4722;49.340;9.800;2023-04-03T04:10:02;3.38;;;1.52;;
9364;SDS011;4722;49.340;9.800;2023-04-03T04:12:28;1.83;;;0.95;;
9364;SDS011;4722;49.340;9.800;2023-04-03T04:14:54;3.38;;;1.05;;
9364;SDS011;4722;49.340;9.800;2023-04-03T04:17:20;3.67;;;1.10;;
9364;SDS011;4722;49.340;9.800;2023-04-03T04:19:46;3.03;;;1.20;;
9364;SDS011;4722;49.340;9.800;2023-04-03T04:22:12;3.45;;;1.00;;
9364;SDS011;4722;49.340;9.800;2023-04-03T04:24:38;6.68;;;2.60;;
9364;SDS011;4722;49.340;9.800;2023-04-03T04:27:03;9.25;;;3.30;;
9364;SDS011;4722;49.340;9.800;2023-04-03T04:29:29;14.88;;;5.50;;
9364;SDS011;4722;49.340;9.800;2023-04-03T04:32:00;11.20;;;4.65;;
9364;SDS011;4722;49.340;9.800;2023-04-03T04:34:26;7.50;;;3.30;;
9364;SDS011;4722;49.340;9.800;2023-04-03T04:36:52;4.97;;;1.08;;
9364;SDS011;4722;49.340;9.800;2023-04-03T04:39:18;2.22;;;1.10;;
9364;SDS011;4722;49.340;9.800;2023-04-03T04:41:44;1.90;;;1.00;;
9364;SDS011;4722;49.340;9.800;2023-04-03T04:44:10;5.13;;;1.15;;
9364;SDS011;4722;49.340;9.800;2023-04-03T04:46:36;3.15;;;1.05;;
9364;SDS011;4722;49.340;9.800;2023-04-03T04:49:02;2.70;;;0.90;;
9364;SDS011;4722;49.340;9.800;2023-04-03T04:51:28;4.35;;;1.33;;
9364;SDS011;4722;49.340;9.800;2023-04-03T04:53:54;5.00;;;1.25;;
9364;SDS011;4722;49.340;9.800;2023-04-03T04:56:20;4.55;;;1.20;;
9364;SDS011;4722;49.340;9.800;2023-04-03T04:58:46;2.65;;;1.10;;
9364;SDS011;4722;49.340;9.800;2023-04-03T05:01:12;3.78;;;1.83;;
9364;SDS011;4722;49.340;9.800;2023-04-03T05:03:38;2.20;;;1.13;;
9364;SDS011;4722;49.340;9.800;2023-04-03T05:06:04;5.60;;;1.20;;
9364;SDS011;4722;49.340;9.800;2023-04-03T05:08:30;2.70;;;1.10;;
9364;SDS011;4722;49.340;9.800;2023-04-03T05:10:56;3.15;;;1.30;;
9364;SDS011;4722;49.340;9.800;2023-04-03T05:13:22;7.38;;;3.20;;
9364;SDS011;4722;49.340;9.800;2023-04-03T05:15:48;47.55;;;16.48;;
9364;SDS011;4722;49.340;9.800;2023-04-03T05:18:14;26.83;;;10.07;;
9364;SDS011;4722;49.340;9.800;2023-04-03T05:20:40;20.27;;;9.20;;
9364;SDS011;4722;49.340;9.800;2023-04-03T05:23:06;4.70;;;2.60;;
9364;SDS011;4722;49.340;9.800;2023-04-03T05:25:32;2.85;;;1.48;;
9364;SDS011;4722;49.340;9.800;2023-04-03T05:27:58;3.78;;;1.60;;
9364;SDS011;4722;49.340;9.800;2023-04-03T05:30:24;2.75;;;1.33;;
9364;SDS011;4722;49.340;9.800;2023-04-03T05:32:50;2.80;;;1.40;;
9364;SDS011;4722;49.340;9.800;2023-04-03T05:35:17;3.15;;;1.33;;
9364;SDS011;4722;49.340;9.800;2023-04-03T05:37:43;3.65;;;1.45;;
9364;SDS011;4722;49.340;9.800;2023-04-03T05:40:09;2.42;;;1.30;;
9364;SDS011;4722;49.340;9.800;2023-04-03T05:42:35;5.82;;;1.92;;
9364;SDS011;4722;49.340;9.800;2023-04-03T05:45:01;2.78;;;1.60;;
9364;SDS011;4722;49.340;9.800;2023-04-03T05:47:27;3.47;;;1.45;;
9364;SDS011;4722;49.340;9.800;2023-04-03T05:49:53;3.75;;;1.55;;
9364;SDS011;4722;49.340;9.800;2023-04-03T05:52:21;2.97;;;1.88;;
9364;SDS011;4722;49.340;9.800;2023-04-03T05:54:48;3.33;;;1.80;;
9364;SDS011;4722;49.340;9.800;2023-04-03T05:57:14;7.72;;;3.00;;
9364;SDS011;4722;49.340;9.800;2023-04-03T05:59:41;4.78;;;2.50;;
9364;SDS011;4722;49.340;9.800;2023-04-03T06:02:08;10.63;;;4.00;;
9364;SDS011;4722;49.340;9.800;2023-04-03T06:04:35;6.60;;;2.40;;
9364;SDS011;4722;49.340;9.800;2023-04-03T06:07:01;13.38;;;7.30;;
9364;SDS011;4722;49.340;9.800;2023-04-03T06:09:27;7.68;;;4.80;;
9364;SDS011;4722;49.340;9.800;2023-04-03T06:11:54;5.45;;;2.08;;
9364;SDS011;4722;49.340;9.800;2023-04-03T06:14:20;12.75;;;5.82;;
9364;SDS011;4722;49.340;9.800;2023-04-03T06:16:46;5.78;;;3.22;;
9364;SDS011;4722;49.340;9.800;2023-04-03T06:19:13;6.32;;;1.98;;
9364;SDS011;4722;49.340;9.800;2023-04-03T06:21:39;16.08;;;7.97;;
9364;SDS011;4722;49.340;9.800;2023-04-03T06:24:05;6.68;;;3.75;;
9364;SDS011;4722;49.340;9.800;2023-04-03T06:26:31;8.48;;;3.70;;
9364;SDS011;4722;49.340;9.800;2023-04-03T06:28:58;10.65;;;4.50;;
9364;SDS011;4722;49.340;9.800;2023-04-03T06:31:24;6.63;;;3.30;;
9364;SDS011;4722;49.340;9.800;2023-04-03T06:33:50;10.55;;;5.30;;
9364;SDS011;4722;49.340;9.800;2023-04-03T06:36:18;4.50;;;2.17;;
9364;SDS011;4722;49.340;9.800;2023-04-03T06:38:45;3.47;;;1.73;;
9364;SDS011;4722;49.340;9.800;2023-04-03T06:41:11;3.35;;;1.65;;
9364;SDS011;4722;49.340;9.800;2023-04-03T06:43:37;7.57;;;1.75;;
9364;SDS011;4722;49.340;9.800;2023-04-03T06:46:03;4.70;;;1.63;;
9364;SDS011;4722;49.340;9.800;2023-04-03T06:48:30;6.45;;;1.60;;
9364;SDS011;4722;49.340;9.800;2023-04-03T06:50:55;4.20;;;1.77;;
9364;SDS011;4722;49.340;9.800;2023-04-03T06:53:21;5.93;;;1.70;;
9364;SDS011;4722;49.340;9.800;2023-04-03T06:55:47;4.57;;;1.38;;
9364;SDS011;4722;49.340;9.800;2023-04-03T06:58:13;6.15;;;1.70;;
9364;SDS011;4722;49.340;9.800;2023-04-03T07:00:40;6.50;;;1.80;;
9364;SDS011;4722;49.340;9.800;2023-04-03T07:03:06;2.60;;;1.23;;
9364;SDS011;4722;49.340;9.800;2023-04-03T07:05:32;2.75;;;1.08;;
9364;SDS011;4722;49.340;9.800;2023-04-03T07:07:58;3.20;;;1.55;;
9364;SDS011;4722;49.340;9.800;2023-04-03T07:10:24;6.05;;;1.42;;
9364;SDS011;4722;49.340;9.800;2023-04-03T07:12:50;5.60;;;1.92;;
9364;SDS011;4722;49.340;9.800;2023-04-03T07:15:17;2.60;;;1.42;;
9364;SDS011;4722;49.340;9.800;2023-04-03T07:17:43;5.30;;;1.55;;
9364;SDS011;4722;49.340;9.800;2023-04-03T07:20:09;2.88;;;1.13;;
9364;SDS011;4722;49.340;9.800;2023-04-03T07:22:35;4.03;;;1.27;;
9364;SDS011;4722;49.340;9.800;2023-04-03T07:25:02;3.47;;;1.55;;
9364;SDS011;4722;49.340;9.800;2023-04-03T07:27:28;4.63;;;1.08;;
9364;SDS011;4722;49.340;9.800;2023-04-03T07:29:54;3.83;;;1.17;;
9364;SDS011;4722;49.340;9.800;2023-04-03T07:32:21;3.47;;;1.30;;
9364;SDS011;4722;49.340;9.800;2023-04-03T07:34:47;6.05;;;1.35;;
9364;SDS011;4722;49.340;9.800;2023-04-03T07:37:13;3.20;;;0.95;;
9364;SDS011;4722;49.340;9.800;2023-04-03T07:39:39;3.22;;;1.50;;
9364;SDS011;4722;49.340;9.800;2023-04-03T07:42:06;4.00;;;1.63;;
9364;SDS011;4722;49.340;9.800;2023-04-03T07:44:33;4.22;;;1.23;;
9364;SDS011;4722;49.340;9.800;2023-04-03T07:46:59;4.13;;;1.45;;
9364;SDS011;4722;49.340;9.800;2023-04-03T07:49:25;5.07;;;1.70;;
9364;SDS011;4722;49.340;9.800;2023-04-03T07:51:52;5.93;;;1.70;;
9364;SDS011;4722;49.340;9.800;2023-04-03T07:54:18;2.75;;;1.40;;
9364;SDS011;4722;49.340;9.800;2023-04-03T07:56:44;2.47;;;1.13;;
9364;SDS011;4722;49.340;9.800;2023-04-03T07:59:10;2.42;;;1.33;;
9364;SDS011;4722;49.340;9.800;2023-04-03T08:01:36;1.92;;;0.85;;
9364;SDS011;4722;49.340;9.800;2023-04-03T08:04:02;2.00;;;1.08;;
9364;SDS011;4722;49.340;9.800;2023-04-03T08:06:28;4.13;;;1.15;;
9364;SDS011;4722;49.340;9.800;2023-04-03T08:08:57;1.67;;;0.80;;
9364;SDS011;4722;49.340;9.800;2023-04-03T08:11:23;2.97;;;1.38;;
9364;SDS011;4722;49.340;9.800;2023-04-03T08:13:51;1.65;;;1.05;;
9364;SDS011;4722;49.340;9.800;2023-04-03T08:16:18;5.22;;;1.38;;
9364;SDS011;4722;49.340;9.800;2023-04-03T08:18:45;2.55;;;1.23;;
9364;SDS011;4722;49.340;9.800;2023-04-03T08:21:11;2.65;;;1.25;;
9364;SDS011;4722;49.340;9.800;2023-04-03T08:23:38;2.30;;;1.02;;
9364;SDS011;4722;49.340;9.800;2023-04-03T08:26:05;2.03;;;1.02;;
9364;SDS011;4722;49.340;9.800;2023-04-03T08:28:31;2.40;;;1.02;;
9364;SDS011;4722;49.340;9.800;2023-04-03T08:31:01;2.70;;;1.15;;
9364;SDS011;4722;49.340;9.800;2023-04-03T08:33:27;3.53;;;0.93;;
9364;SDS011;4722;49.340;9.800;2023-04-03T08:35:53;1.83;;;0.52;;
9364;SDS011;4722;49.340;9.800;2023-04-03T08:38:19;1.30;;;0.90;;
9364;SDS011;4722;49.340;9.800;2023-04-03T08:40:45;1.50;;;0.90;;
9364;SDS011;4722;49.340;9.800;2023-04-03T08:43:33;1.33;;;0.60;;
9364;SDS011;4722;49.340;9.800;2023-04-03T08:46:02;3.10;;;1.15;;
9364;SDS011;4722;49.340;9.800;2023-04-03T08:48:32;5.10;;;0.75;;
9364;SDS011;4722;49.340;9.800;2023-04-03T08:50:59;4.78;;;2.47;;
9364;SDS011;4722;49.340;9.800;2023-04-03T08:53:27;3.22;;;1.27;;
